This is the latest recevied weather packets stored in our database for station/object JF2ZGN-13. If no packets are shown the sender has not sent any weather packets the latest 10 day(s).
| Time | Temp. | Humidity | Pressure | Rain* | Wind** | Luminosity | Snow |
|---|---|---|---|---|---|---|---|
| 1787622970 | 23.33° C | 80% | 912.1 hPa | 0 mm | - | - | - |
| 1787622369 | 23.33° C | 79% | 912.1 hPa | 0 mm | - | - | - |
| 1787621769 | 23.33° C | 78% | 912.1 hPa | 0 mm | - | - | - |
| 1787621168 | 22.78° C | 79% | 912.2 hPa | 0 mm | - | - | - |
| 1787620568 | 23.33° C | 78% | 912.2 hPa | 0 mm | - | - | - |
| 1787619968 | 22.78° C | 79% | 912.3 hPa | 0 mm | - | - | - |
| 1787619367 | 22.78° C | 80% | 912.2 hPa | 0 mm | - | - | - |
| 1787618766 | 22.78° C | 78% | 912.4 hPa | 0 mm | - | - | - |
| 1787618166 | 23.33° C | 78% | 912.4 hPa | 0 mm | - | - | - |
| 1787617565 | 23.33° C | 76% | 912.3 hPa | 0 mm | - | - | - |
| 1787616972 | 22.78° C | 77% | 912.4 hPa | 0 mm | - | - | - |
| 1787616365 | 22.22° C | 77% | 912 hPa | 0 mm | - | - | - |
| 1787615764 | 22.22° C | 79% | 912.3 hPa | 0 mm | - | - | - |
| 1787615163 | 22.22° C | 80% | 912.4 hPa | 0 mm | - | - | - |
| 1787614563 | 22.22° C | 80% | 912.3 hPa | 0 mm | - | - | - |
| 1787613962 | 22.22° C | 82% | 912.4 hPa | 0 mm | - | - | - |
| 1787613362 | 21.67° C | 83% | 912.3 hPa | 0 mm | - | - | - |
| 1787612761 | 22.78° C | 79% | 912.3 hPa | 0 mm | - | - | - |
| 1787612161 | 23.33° C | 76% | 912.2 hPa | 0 mm | - | - | - |
| 1787611561 | 23.33° C | 74% | 912.2 hPa | 0 mm | - | - | - |
| 1787610960 | 23.89° C | 70% | 912.2 hPa | 0 mm | - | - | - |
| 1787610360 | 22.78° C | 73% | 912.1 hPa | 0 mm | - | - | - |
| 1787609759 | 21.67° C | 81% | 912.1 hPa | 0 mm | - | - | - |
| 1787609160 | 21.11° C | 82% | 912 hPa | 0 mm | - | - | - |
| 1787608560 | 20.56° C | 83% | 911.9 hPa | 0 mm | - | - | - |
* Rain since midnight (hover to see other rain measurements)
** Current wind speed in m/s (hover to see current wind gust speed)